Terminal Aerodrome Forecast
Issued by NWS

Home | Current Version | Previous Version | Text Only | Print | Product List | Glossary On
Versions: 1 2 3 4 5 6 7 8 9 10 11 12 13 14 15 16 17 18 19 20 21
000
FTUS42 KGSP 011100
TAFAND
TAF
KAND 011135Z 0112/0212 25004KT P6SM BKN250
      TEMPO 0112/0113 5SM BR
     FM011600 25006KT P6SM SCT060
     FM012100 24006KT P6SM BKN060
     FM020100 23003KT P6SM SCT070=

USA.gov is the U.S. government's official web portal to all federal, state and local government web resources and services.